createdAt,value
2018-03-17T00:00:17.571Z,0.00
2018-03-17T00:01:17.515Z,0.00
2018-03-17T00:02:17.460Z,0.00
2018-03-17T00:03:17.400Z,0.00
2018-03-17T00:04:17.349Z,0.00
2018-03-17T00:05:17.287Z,0.00
2018-03-17T00:06:17.240Z,0.00
2018-03-17T00:07:17.174Z,0.00
2018-03-17T00:08:17.118Z,0.00
2018-03-17T00:09:17.061Z,0.00
2018-03-17T00:10:17.005Z,0.00
2018-03-17T00:11:16.948Z,0.00
2018-03-17T00:12:16.891Z,0.00
2018-03-17T00:13:16.834Z,0.00
2018-03-17T00:14:16.779Z,0.00
2018-03-17T00:15:16.721Z,0.00
2018-03-17T00:16:16.664Z,0.00
2018-03-17T00:17:16.608Z,0.00
2018-03-17T00:18:16.551Z,0.00
2018-03-17T00:19:16.494Z,0.00
2018-03-17T00:20:16.437Z,0.00
2018-03-17T00:21:16.383Z,0.00
2018-03-17T00:22:16.324Z,0.00
2018-03-17T00:23:16.267Z,0.00
2018-03-17T00:24:16.211Z,0.00
2018-03-17T00:25:16.154Z,0.00
2018-03-17T00:26:16.099Z,0.00
2018-03-17T00:27:16.095Z,0.00
2018-03-17T00:28:15.983Z,0.00
2018-03-17T00:29:15.926Z,0.00
2018-03-17T00:30:15.869Z,0.00
2018-03-17T00:31:15.814Z,0.00
2018-03-17T00:32:15.755Z,0.00
2018-03-17T00:33:15.698Z,0.00
2018-03-17T00:34:15.641Z,0.00
2018-03-17T00:35:15.583Z,0.00
2018-03-17T00:36:15.526Z,0.00
2018-03-17T00:37:15.470Z,0.00
2018-03-17T00:38:15.413Z,0.00
2018-03-17T00:39:15.355Z,0.00
2018-03-17T00:40:15.298Z,0.00
2018-03-17T00:41:15.241Z,0.00
2018-03-17T00:42:15.184Z,0.00
2018-03-17T00:43:15.126Z,0.00
2018-03-17T00:44:15.069Z,0.00
2018-03-17T00:45:15.012Z,0.00
2018-03-17T00:46:14.955Z,0.00
2018-03-17T00:47:14.897Z,0.00
2018-03-17T00:48:14.839Z,0.00
2018-03-17T00:49:14.783Z,0.00
2018-03-17T00:50:14.726Z,0.00
2018-03-17T00:51:14.675Z,0.00
2018-03-17T00:52:14.644Z,0.00
2018-03-17T00:53:14.553Z,0.00
2018-03-17T00:54:14.497Z,0.00
2018-03-17T00:55:14.439Z,0.00
2018-03-17T00:56:14.382Z,0.00
2018-03-17T00:57:14.328Z,0.00
2018-03-17T00:58:14.274Z,0.00
2018-03-17T00:59:14.210Z,0.00
2018-03-17T01:00:14.153Z,0.00
2018-03-17T01:01:14.096Z,0.00
2018-03-17T01:02:14.039Z,0.00
2018-03-17T01:03:13.981Z,0.00
2018-03-17T01:04:13.924Z,0.00
2018-03-17T01:05:13.872Z,0.00
2018-03-17T01:06:13.810Z,0.00
2018-03-17T01:07:13.756Z,0.00
2018-03-17T01:08:13.694Z,0.00
2018-03-17T01:09:13.638Z,0.00
2018-03-17T01:10:13.581Z,0.00
2018-03-17T01:11:13.522Z,0.00
2018-03-17T01:12:13.466Z,0.00
2018-03-17T01:13:13.408Z,0.00
2018-03-17T01:14:13.352Z,0.00
2018-03-17T01:15:13.294Z,0.00
2018-03-17T01:16:13.238Z,0.00
2018-03-17T01:17:13.180Z,0.00
2018-03-17T01:18:13.123Z,0.00
2018-03-17T01:19:13.065Z,0.00
2018-03-17T01:20:13.008Z,0.00
2018-03-17T01:21:12.959Z,0.00
2018-03-17T01:22:12.894Z,0.00
2018-03-17T01:23:12.836Z,0.00
2018-03-17T01:24:12.779Z,0.00
2018-03-17T01:25:12.722Z,0.00
2018-03-17T01:26:12.666Z,0.00
2018-03-17T01:27:12.614Z,0.00
2018-03-17T01:28:12.550Z,0.00
2018-03-17T01:29:12.493Z,0.00
2018-03-17T01:30:12.442Z,0.00
2018-03-17T01:31:12.378Z,0.00
2018-03-17T01:32:12.371Z,0.00
2018-03-17T01:33:12.263Z,0.00
2018-03-17T01:34:12.206Z,0.00
2018-03-17T01:35:12.148Z,0.00
2018-03-17T01:36:12.091Z,0.00
2018-03-17T01:37:12.033Z,0.00
2018-03-17T01:38:11.976Z,0.00
2018-03-17T01:39:11.918Z,0.00
2018-03-17T01:40:11.911Z,0.00
2018-03-17T01:41:11.805Z,0.00
2018-03-17T01:42:11.747Z,0.00
2018-03-17T01:43:11.688Z,0.00
2018-03-17T01:44:11.631Z,0.00
2018-03-17T01:45:11.573Z,0.00
2018-03-17T01:46:11.517Z,0.00
2018-03-17T01:47:11.458Z,0.00
2018-03-17T01:48:11.401Z,0.00
2018-03-17T01:49:11.344Z,0.00
2018-03-17T01:50:11.286Z,0.00
2018-03-17T01:51:11.228Z,0.00
2018-03-17T01:52:11.170Z,0.00
2018-03-17T01:53:11.113Z,0.00
2018-03-17T01:54:11.056Z,0.00
2018-03-17T01:55:10.997Z,0.00
2018-03-17T01:56:10.940Z,0.00
2018-03-17T01:57:10.882Z,0.00
2018-03-17T01:58:10.825Z,0.00
2018-03-17T01:59:10.801Z,0.00
2018-03-17T02:00:10.709Z,0.00
2018-03-17T02:01:10.651Z,0.00
2018-03-17T02:02:10.594Z,0.00
2018-03-17T02:03:10.537Z,0.00
2018-03-17T02:04:10.477Z,0.00
2018-03-17T02:05:10.419Z,0.00
2018-03-17T02:06:10.362Z,0.00
2018-03-17T02:07:10.303Z,0.00
2018-03-17T02:08:10.247Z,0.00
2018-03-17T02:09:10.188Z,0.00
2018-03-17T02:10:10.130Z,0.00
2018-03-17T02:11:10.072Z,0.00
2018-03-17T02:12:10.014Z,0.00
2018-03-17T02:13:09.956Z,0.00
2018-03-17T02:14:09.899Z,0.00
2018-03-17T02:15:09.840Z,0.00
2018-03-17T02:16:09.782Z,0.00
2018-03-17T02:17:09.725Z,0.00
2018-03-17T02:18:09.667Z,0.00
2018-03-17T02:19:09.608Z,0.00
2018-03-17T02:20:09.591Z,0.00
2018-03-17T02:21:09.499Z,0.00
2018-03-17T02:22:09.447Z,0.00
2018-03-17T02:23:09.377Z,0.00
2018-03-17T02:24:09.319Z,0.00
2018-03-17T02:25:09.262Z,0.00
2018-03-17T02:26:09.204Z,0.00
2018-03-17T02:27:09.146Z,0.00
2018-03-17T02:28:09.088Z,0.00
2018-03-17T02:29:09.030Z,0.00
2018-03-17T02:30:08.983Z,0.00
2018-03-17T02:31:08.964Z,0.00
2018-03-17T02:32:08.857Z,0.00
2018-03-17T02:33:08.849Z,0.00
2018-03-17T02:34:08.742Z,0.00
2018-03-17T02:35:08.683Z,0.00
2018-03-17T02:36:08.626Z,0.00
2018-03-17T02:37:08.568Z,0.00
2018-03-17T02:38:08.510Z,0.00
2018-03-17T02:39:08.454Z,0.00
2018-03-17T02:40:08.395Z,0.00
2018-03-17T02:41:08.337Z,0.00
2018-03-17T02:42:08.306Z,0.00
2018-03-17T02:43:08.221Z,0.00
2018-03-17T02:44:08.173Z,0.00
2018-03-17T02:45:08.105Z,0.00
2018-03-17T02:46:08.049Z,0.00
2018-03-17T02:47:07.989Z,0.00
2018-03-17T02:48:07.932Z,0.00
2018-03-17T02:49:07.873Z,0.00
2018-03-17T02:50:07.820Z,0.00
2018-03-17T02:51:07.757Z,0.00
2018-03-17T02:52:07.699Z,0.00
2018-03-17T02:53:07.642Z,0.00
2018-03-17T02:54:07.583Z,0.00
2018-03-17T02:55:07.531Z,0.00
2018-03-17T02:56:07.467Z,0.00
2018-03-17T02:57:07.409Z,0.00
2018-03-17T02:58:07.351Z,0.00
2018-03-17T02:59:07.297Z,0.00
2018-03-17T03:00:07.234Z,0.00
2018-03-17T03:01:07.181Z,0.00
2018-03-17T03:02:07.118Z,0.00
2018-03-17T03:03:07.060Z,0.00
2018-03-17T03:04:07.001Z,0.00
2018-03-17T03:05:06.945Z,0.00
2018-03-17T03:06:06.887Z,0.00
2018-03-17T03:07:06.828Z,0.00
2018-03-17T03:08:06.770Z,0.00
2018-03-17T03:09:06.711Z,0.00
2018-03-17T03:10:06.654Z,0.00
2018-03-17T03:11:06.595Z,0.00
2018-03-17T03:12:06.537Z,0.00
2018-03-17T03:13:06.480Z,0.00
2018-03-17T03:14:06.422Z,0.00
2018-03-17T03:15:06.369Z,0.00
2018-03-17T03:16:06.305Z,0.00
2018-03-17T03:17:06.247Z,0.00
2018-03-17T03:18:06.192Z,0.00
2018-03-17T03:19:06.131Z,0.00
2018-03-17T03:20:06.073Z,0.00
2018-03-17T03:21:06.015Z,0.00
2018-03-17T03:22:05.957Z,0.00
2018-03-17T03:23:05.900Z,0.00
2018-03-17T03:24:05.841Z,0.00
2018-03-17T03:25:05.784Z,0.00
2018-03-17T03:26:05.725Z,0.00
2018-03-17T03:27:05.670Z,0.00
2018-03-17T03:28:05.610Z,0.00
2018-03-17T03:29:05.702Z,0.00
2018-03-17T03:30:05.494Z,0.00
2018-03-17T03:31:05.436Z,0.00
2018-03-17T03:32:05.377Z,0.00
2018-03-17T03:33:05.319Z,0.00
2018-03-17T03:34:05.261Z,0.00
2018-03-17T03:35:05.203Z,0.00
2018-03-17T03:36:05.145Z,0.00
2018-03-17T03:37:05.087Z,0.00
2018-03-17T03:38:05.029Z,0.00
2018-03-17T03:39:04.974Z,0.00
2018-03-17T03:40:04.913Z,0.00
2018-03-17T03:41:04.856Z,0.00
2018-03-17T03:42:04.801Z,0.00
2018-03-17T03:43:04.746Z,0.00
2018-03-17T03:44:04.682Z,0.00
2018-03-17T03:45:04.624Z,0.00
2018-03-17T03:46:04.572Z,0.00
2018-03-17T03:47:04.508Z,0.00
2018-03-17T03:48:04.450Z,0.00
2018-03-17T03:49:04.397Z,0.00
2018-03-17T03:50:04.335Z,0.00
2018-03-17T03:51:04.276Z,0.00
2018-03-17T03:52:04.219Z,0.00
2018-03-17T03:53:04.161Z,0.00
2018-03-17T03:54:04.104Z,0.00
2018-03-17T03:55:04.045Z,0.00
2018-03-17T03:56:03.987Z,0.00
2018-03-17T03:57:03.929Z,0.00
2018-03-17T03:58:03.874Z,0.00
2018-03-17T03:59:03.813Z,0.00
2018-03-17T04:00:03.755Z,0.00
2018-03-17T04:01:03.697Z,0.00
2018-03-17T04:02:03.639Z,0.00
2018-03-17T04:03:03.587Z,0.00
2018-03-17T04:04:03.523Z,0.00
2018-03-17T04:05:03.465Z,0.00
2018-03-17T04:06:03.407Z,0.00
2018-03-17T04:07:03.348Z,0.00
2018-03-17T04:08:03.292Z,0.00
2018-03-17T04:09:03.233Z,0.00
2018-03-17T04:10:03.175Z,0.00
2018-03-17T04:11:03.118Z,0.00
2018-03-17T04:12:03.058Z,0.00
2018-03-17T04:13:03.001Z,0.00
2018-03-17T04:14:02.944Z,0.00
2018-03-17T04:15:02.883Z,0.00
2018-03-17T04:16:02.826Z,0.00
2018-03-17T04:17:02.768Z,0.00
2018-03-17T04:18:02.710Z,0.00
2018-03-17T04:19:02.650Z,0.00
2018-03-17T04:20:02.593Z,0.00
2018-03-17T04:21:02.534Z,0.00
2018-03-17T04:22:02.477Z,0.00
2018-03-17T04:23:02.419Z,0.00
2018-03-17T04:24:02.360Z,0.00
2018-03-17T04:25:02.302Z,0.00
2018-03-17T04:26:02.244Z,0.00
2018-03-17T04:27:02.185Z,0.00
2018-03-17T04:28:02.177Z,0.00
2018-03-17T04:29:02.071Z,0.00
2018-03-17T04:30:02.013Z,0.00
2018-03-17T04:31:01.952Z,0.00
2018-03-17T04:32:01.894Z,0.00
2018-03-17T04:33:01.836Z,0.00
2018-03-17T04:34:01.828Z,0.00
2018-03-17T04:35:01.719Z,0.00
2018-03-17T04:36:01.663Z,0.00
2018-03-17T04:37:01.604Z,0.00
2018-03-17T04:38:01.545Z,0.00
2018-03-17T04:39:01.540Z,0.00
2018-03-17T04:40:01.430Z,0.00
2018-03-17T04:41:01.370Z,0.00
2018-03-17T04:42:01.312Z,0.00
2018-03-17T04:43:01.254Z,0.00
2018-03-17T04:44:01.196Z,0.00
2018-03-17T04:45:01.137Z,0.00
2018-03-17T04:46:01.080Z,0.00
2018-03-17T04:47:01.024Z,0.00
2018-03-17T04:48:00.963Z,0.00
2018-03-17T04:49:00.905Z,0.00
2018-03-17T04:50:00.854Z,0.00
2018-03-17T04:51:00.788Z,0.00
2018-03-17T04:52:00.731Z,0.00
2018-03-17T04:53:00.672Z,0.00
2018-03-17T04:54:00.614Z,0.00
2018-03-17T04:55:00.556Z,0.00
2018-03-17T04:56:00.497Z,0.00
2018-03-17T04:57:00.440Z,0.00
2018-03-17T04:58:00.388Z,0.00
2018-03-17T04:59:00.324Z,0.00
2018-03-17T05:00:00.319Z,0.00
2018-03-17T05:01:00.205Z,0.00
2018-03-17T05:02:00.147Z,0.00
2018-03-17T05:03:00.088Z,0.00
2018-03-17T05:04:00.035Z,0.00
2018-03-17T05:04:59.971Z,0.00
2018-03-17T05:05:59.915Z,0.00
2018-03-17T05:06:59.854Z,0.00
2018-03-17T05:07:59.796Z,0.00
2018-03-17T05:08:59.738Z,0.00
2018-03-17T05:09:59.690Z,0.00
2018-03-17T05:10:59.621Z,0.00
2018-03-17T05:11:59.562Z,0.00
2018-03-17T05:12:59.505Z,0.00
2018-03-17T05:13:59.446Z,5.63
2018-03-17T05:14:59.387Z,5.63
2018-03-17T05:15:59.379Z,5.63
2018-03-17T05:16:59.271Z,5.63
2018-03-17T05:17:59.213Z,5.63
2018-03-17T05:18:59.153Z,5.63
2018-03-17T05:19:59.096Z,5.63
2018-03-17T05:20:59.038Z,11.25
2018-03-17T05:21:58.983Z,11.25
2018-03-17T05:22:58.920Z,11.25
2018-03-17T05:23:58.862Z,11.25
2018-03-17T05:24:58.804Z,11.25
2018-03-17T05:25:58.746Z,16.88
2018-03-17T05:26:58.687Z,16.88
2018-03-17T05:27:58.629Z,16.88
2018-03-17T05:28:58.571Z,22.50
2018-03-17T05:29:58.514Z,22.50
2018-03-17T05:30:58.457Z,22.50
2018-03-17T05:31:58.395Z,28.13
2018-03-17T05:32:58.337Z,28.13
2018-03-17T05:33:58.284Z,33.75
2018-03-17T05:34:58.225Z,33.75
2018-03-17T05:35:58.162Z,39.38
2018-03-17T05:36:58.104Z,39.38
2018-03-17T05:37:58.094Z,39.38
2018-03-17T05:38:57.988Z,45.00
2018-03-17T05:39:57.930Z,45.00
2018-03-17T05:40:57.872Z,45.00
2018-03-17T05:41:57.814Z,50.63
2018-03-17T05:42:57.754Z,50.63
2018-03-17T05:43:57.697Z,56.25
2018-03-17T05:44:57.689Z,56.25
2018-03-17T05:45:57.582Z,56.25
2018-03-17T05:46:57.522Z,56.25
2018-03-17T05:47:57.463Z,61.88
2018-03-17T05:48:57.406Z,61.88
2018-03-17T05:49:57.350Z,61.88
2018-03-17T05:50:57.290Z,67.50
2018-03-17T05:51:57.232Z,67.50
2018-03-17T05:52:57.177Z,67.50
2018-03-17T05:53:57.116Z,67.50
2018-03-17T05:54:57.063Z,67.50
2018-03-17T05:55:57.001Z,78.75
2018-03-17T05:56:56.944Z,73.13
2018-03-17T05:57:56.884Z,73.13
2018-03-17T05:58:56.827Z,73.13
2018-03-17T05:59:56.774Z,78.75
2018-03-17T06:00:56.710Z,84.38
2018-03-17T06:01:56.654Z,90.00
2018-03-17T06:02:56.593Z,95.63
2018-03-17T06:03:56.535Z,101.25
2018-03-17T06:04:56.477Z,101.25
2018-03-17T06:05:56.419Z,106.88
2018-03-17T06:06:56.364Z,106.88
2018-03-17T06:07:56.303Z,112.50
2018-03-17T06:08:56.250Z,118.13
2018-03-17T06:09:56.187Z,118.13
2018-03-17T06:10:56.128Z,123.75
2018-03-17T06:11:56.070Z,123.75
2018-03-17T06:12:56.012Z,129.38
2018-03-17T06:13:55.955Z,135.00
2018-03-17T06:14:55.896Z,140.63
2018-03-17T06:15:55.838Z,140.63
2018-03-17T06:16:55.781Z,146.25
2018-03-17T06:17:55.723Z,151.88
2018-03-17T06:18:55.665Z,157.50
2018-03-17T06:19:55.607Z,157.50
2018-03-17T06:20:55.550Z,163.13
2018-03-17T06:21:55.493Z,168.75
2018-03-17T06:22:55.434Z,174.38
2018-03-17T06:23:55.377Z,180.00
2018-03-17T06:24:55.319Z,185.63
2018-03-17T06:25:55.261Z,185.63
2018-03-17T06:26:55.247Z,185.63
2018-03-17T06:27:55.146Z,191.25
2018-03-17T06:28:55.088Z,191.25
2018-03-17T06:29:55.031Z,196.88
2018-03-17T06:30:54.973Z,196.88
2018-03-17T06:31:54.920Z,202.50
2018-03-17T06:32:54.858Z,213.75
2018-03-17T06:33:54.802Z,219.38
2018-03-17T06:34:54.748Z,225.00
2018-03-17T06:35:54.686Z,230.63
2018-03-17T06:36:54.629Z,241.88
2018-03-17T06:37:54.572Z,253.13
2018-03-17T06:38:54.517Z,253.13
2018-03-17T06:39:54.456Z,258.75
2018-03-17T06:40:54.401Z,264.38
2018-03-17T06:41:54.342Z,270.00
2018-03-17T06:42:54.284Z,275.63
2018-03-17T06:43:54.227Z,275.63
2018-03-17T06:44:54.175Z,286.88
2018-03-17T06:45:54.113Z,292.50
2018-03-17T06:46:54.057Z,292.50
2018-03-17T06:47:53.997Z,303.75
2018-03-17T06:48:53.941Z,315.00
2018-03-17T06:49:53.934Z,315.00
2018-03-17T06:50:53.825Z,348.75
2018-03-17T06:51:53.768Z,646.88
2018-03-17T06:52:53.711Z,1068.75
2018-03-17T06:53:53.655Z,1147.50
2018-03-17T06:54:53.597Z,1175.63
2018-03-17T06:55:53.543Z,1175.63
2018-03-17T06:56:53.487Z,1231.88
2018-03-17T06:57:53.426Z,1186.88
2018-03-17T06:58:53.383Z,1243.13
2018-03-17T06:59:53.318Z,1327.50
2018-03-17T07:00:53.258Z,1350.00
2018-03-17T07:01:53.203Z,1338.75
2018-03-17T07:02:53.149Z,1372.50
2018-03-17T07:03:53.093Z,1406.25
2018-03-17T07:04:53.040Z,1366.88
2018-03-17T07:05:52.994Z,1406.25
2018-03-17T07:06:52.932Z,1496.25
2018-03-17T07:07:52.880Z,1445.63
2018-03-17T07:08:52.827Z,1496.25
2018-03-17T07:09:52.776Z,1496.25
2018-03-17T07:10:52.727Z,1501.88
2018-03-17T07:11:52.672Z,1490.63
2018-03-17T07:12:52.628Z,1507.50
2018-03-17T07:13:52.572Z,1406.25
2018-03-17T07:14:52.521Z,1490.63
2018-03-17T07:15:52.476Z,1563.75
2018-03-17T07:16:52.422Z,956.25
2018-03-17T07:17:52.377Z,1501.88
2018-03-17T07:18:52.320Z,1113.75
2018-03-17T07:19:52.270Z,1569.38
2018-03-17T07:20:52.232Z,523.13
2018-03-17T07:21:52.171Z,1749.38
2018-03-17T07:22:52.120Z,1816.88
2018-03-17T07:23:52.070Z,1074.38
2018-03-17T07:24:52.021Z,2109.38
2018-03-17T07:25:51.971Z,2030.63
2018-03-17T07:26:51.921Z,928.13
2018-03-17T07:27:51.874Z,1248.75
2018-03-17T07:28:51.823Z,489.38
2018-03-17T07:29:51.774Z,1209.38
2018-03-17T07:30:51.725Z,1738.13
2018-03-17T07:31:51.675Z,1231.88
2018-03-17T07:32:51.626Z,945.00
2018-03-17T07:33:51.580Z,1676.25
2018-03-17T07:34:51.529Z,967.50
2018-03-17T07:35:51.477Z,725.63
2018-03-17T07:36:51.429Z,1507.50
2018-03-17T07:37:51.386Z,1704.38
2018-03-17T07:38:51.331Z,1670.63
2018-03-17T07:39:51.277Z,1777.50
2018-03-17T07:40:51.227Z,1670.63
2018-03-17T07:41:51.177Z,1681.88
2018-03-17T07:42:51.126Z,1158.75
2018-03-17T07:43:51.076Z,1951.88
2018-03-17T07:44:51.025Z,1951.88
2018-03-17T07:45:50.975Z,1929.38
2018-03-17T07:46:50.925Z,1890.00
2018-03-17T07:47:50.926Z,1794.38
2018-03-17T07:48:50.829Z,1760.63
2018-03-17T07:49:50.778Z,1715.63
2018-03-17T07:50:50.730Z,1558.13
2018-03-17T07:51:50.681Z,1653.75
2018-03-17T07:52:50.634Z,1721.25
2018-03-17T07:53:50.586Z,1845.00
2018-03-17T07:54:50.537Z,1850.63
2018-03-17T07:55:50.489Z,1833.75
2018-03-17T07:56:50.442Z,1856.25
2018-03-17T07:57:50.394Z,2019.38
2018-03-17T07:58:50.346Z,1951.88
2018-03-17T07:59:50.299Z,1935.00
2018-03-17T08:00:50.252Z,1901.25
2018-03-17T08:01:50.208Z,1839.38
2018-03-17T08:02:50.169Z,1828.13
2018-03-17T08:03:50.112Z,1721.25
2018-03-17T08:04:50.065Z,804.38
2018-03-17T08:05:50.019Z,1698.75
2018-03-17T08:06:49.972Z,855.00
2018-03-17T08:07:49.925Z,1670.63
2018-03-17T08:08:49.878Z,1766.25
2018-03-17T08:09:49.832Z,1704.38
2018-03-17T08:10:49.783Z,1715.63
2018-03-17T08:11:49.737Z,1693.13
2018-03-17T08:12:49.690Z,1794.38
2018-03-17T08:13:49.644Z,1895.63
2018-03-17T08:14:49.596Z,1873.13
2018-03-17T08:15:49.550Z,1923.75
2018-03-17T08:16:49.508Z,1873.13
2018-03-17T08:17:49.460Z,1749.38
2018-03-17T08:18:49.413Z,1749.38
2018-03-17T08:19:49.367Z,1884.38
2018-03-17T08:20:49.323Z,1957.50
2018-03-17T08:21:49.278Z,2098.13
2018-03-17T08:22:49.232Z,1951.88
2018-03-17T08:23:49.187Z,1822.50
2018-03-17T08:24:49.142Z,1726.88
2018-03-17T08:25:49.097Z,1963.13
2018-03-17T08:26:49.054Z,1614.38
2018-03-17T08:27:49.007Z,1552.50
2018-03-17T08:28:48.962Z,1344.38
2018-03-17T08:29:48.918Z,1096.88
2018-03-17T08:30:48.872Z,815.63
2018-03-17T08:31:48.827Z,776.25
2018-03-17T08:32:48.782Z,697.50
2018-03-17T08:33:48.737Z,720.00
2018-03-17T08:34:48.689Z,753.75
2018-03-17T08:35:48.643Z,804.38
2018-03-17T08:36:48.606Z,815.63
2018-03-17T08:37:48.549Z,776.25
2018-03-17T08:38:48.500Z,748.13
2018-03-17T08:39:48.452Z,725.63
2018-03-17T08:40:48.404Z,691.88
2018-03-17T08:41:48.356Z,725.63
2018-03-17T08:42:48.306Z,720.00
2018-03-17T08:43:48.273Z,691.88
2018-03-17T08:44:48.208Z,646.88
2018-03-17T08:45:48.158Z,630.00
2018-03-17T08:46:48.113Z,613.13
2018-03-17T08:47:48.058Z,607.50
2018-03-17T08:48:48.012Z,579.38
2018-03-17T08:49:47.957Z,573.75
2018-03-17T08:50:47.907Z,585.00
2018-03-17T08:51:47.856Z,585.00
2018-03-17T08:52:47.808Z,556.88
2018-03-17T08:53:47.752Z,540.00
2018-03-17T08:54:47.700Z,523.13
2018-03-17T08:55:47.648Z,517.50
2018-03-17T08:56:47.612Z,523.13
2018-03-17T08:57:47.547Z,534.38
2018-03-17T08:58:47.570Z,562.50
2018-03-17T08:59:47.445Z,601.88
2018-03-17T09:00:47.386Z,613.13
2018-03-17T09:01:47.333Z,596.25
2018-03-17T09:02:47.288Z,573.75
2018-03-17T09:03:47.228Z,573.75
2018-03-17T09:04:47.175Z,573.75
2018-03-17T09:05:47.124Z,573.75
2018-03-17T09:06:47.069Z,579.38
2018-03-17T09:07:47.016Z,579.38
2018-03-17T09:08:46.963Z,585.00
2018-03-17T09:09:46.911Z,579.38
2018-03-17T09:10:46.870Z,585.00
2018-03-17T09:11:46.804Z,585.00
2018-03-17T09:12:46.752Z,596.25
2018-03-17T09:13:46.698Z,607.50
2018-03-17T09:14:46.646Z,618.75
2018-03-17T09:15:46.592Z,641.25
2018-03-17T09:16:46.538Z,663.75
2018-03-17T09:17:46.485Z,725.63
2018-03-17T09:18:46.431Z,770.63
2018-03-17T09:19:46.384Z,731.25
2018-03-17T09:20:46.325Z,708.75
2018-03-17T09:21:46.328Z,697.50
2018-03-17T09:22:46.217Z,703.13
2018-03-17T09:23:46.164Z,708.75
2018-03-17T09:24:46.111Z,725.63
2018-03-17T09:25:46.058Z,753.75
2018-03-17T09:26:46.008Z,855.00
2018-03-17T09:27:45.951Z,1170.00
2018-03-17T09:28:45.898Z,928.13
2018-03-17T09:29:45.845Z,894.38
2018-03-17T09:30:45.791Z,961.88
2018-03-17T09:31:45.737Z,1153.13
2018-03-17T09:32:45.685Z,1001.25
2018-03-17T09:33:45.633Z,1130.63
2018-03-17T09:34:45.629Z,1068.75
2018-03-17T09:35:45.527Z,1141.88
2018-03-17T09:36:45.475Z,1158.75
2018-03-17T09:37:45.423Z,1501.88
2018-03-17T09:38:45.374Z,1507.50
2018-03-17T09:39:45.320Z,1080.00
2018-03-17T09:40:45.268Z,1417.50
2018-03-17T09:41:45.218Z,1344.38
2018-03-17T09:42:45.166Z,1535.63
2018-03-17T09:43:45.117Z,1440.00
2018-03-17T09:44:45.067Z,1091.25
2018-03-17T09:45:45.019Z,810.00
2018-03-17T09:46:44.969Z,675.00
2018-03-17T09:47:44.921Z,652.50
2018-03-17T09:48:44.872Z,646.88
2018-03-17T09:49:44.823Z,635.63
2018-03-17T09:50:44.773Z,624.38
2018-03-17T09:51:44.724Z,635.63
2018-03-17T09:52:44.675Z,624.38
2018-03-17T09:53:44.626Z,613.13
2018-03-17T09:54:44.574Z,590.63
2018-03-17T09:55:44.524Z,596.25
2018-03-17T09:56:44.474Z,573.75
2018-03-17T09:57:44.426Z,540.00
2018-03-17T09:58:44.372Z,534.38
2018-03-17T09:59:44.320Z,500.63
2018-03-17T10:00:44.269Z,478.13
2018-03-17T10:01:44.223Z,500.63
2018-03-17T10:02:44.165Z,483.75
2018-03-17T10:03:44.113Z,450.00
2018-03-17T10:04:44.061Z,483.75
2018-03-17T10:05:44.021Z,511.88
2018-03-17T10:06:43.955Z,461.25
2018-03-17T10:07:43.903Z,455.63
2018-03-17T10:08:43.850Z,410.63
2018-03-17T10:09:43.797Z,427.50
2018-03-17T10:10:43.742Z,500.63
2018-03-17T10:11:43.690Z,489.38
2018-03-17T10:12:43.640Z,517.50
2018-03-17T10:13:43.583Z,534.38
2018-03-17T10:14:43.529Z,540.00
2018-03-17T10:15:43.475Z,568.13
2018-03-17T10:16:43.422Z,528.75
2018-03-17T10:17:43.368Z,534.38
2018-03-17T10:18:43.314Z,478.13
2018-03-17T10:19:43.260Z,444.38
2018-03-17T10:20:43.207Z,421.88
2018-03-17T10:21:43.153Z,495.00
2018-03-17T10:22:43.099Z,483.75
2018-03-17T10:23:43.045Z,478.13
2018-03-17T10:24:42.992Z,433.13
2018-03-17T10:25:42.938Z,472.50
2018-03-17T10:26:42.883Z,466.88
2018-03-17T10:27:42.837Z,534.38
2018-03-17T10:28:42.777Z,466.88
2018-03-17T10:29:42.723Z,551.25
2018-03-17T10:30:42.668Z,568.13
2018-03-17T10:31:42.615Z,528.75
2018-03-17T10:32:42.561Z,534.38
2018-03-17T10:33:42.509Z,528.75
2018-03-17T10:34:42.456Z,545.63
2018-03-17T10:35:42.399Z,511.88
2018-03-17T10:36:42.346Z,596.25
2018-03-17T10:37:42.292Z,624.38
2018-03-17T10:38:42.238Z,556.88
2018-03-17T10:39:42.185Z,511.88
2018-03-17T10:40:42.131Z,500.63
2018-03-17T10:41:42.077Z,500.63
2018-03-17T10:42:42.023Z,478.13
2018-03-17T10:43:41.999Z,511.88
2018-03-17T10:44:41.916Z,472.50
2018-03-17T10:45:41.863Z,511.88
2018-03-17T10:46:41.808Z,523.13
2018-03-17T10:47:41.756Z,523.13
2018-03-17T10:48:41.702Z,427.50
2018-03-17T10:49:41.648Z,410.63
2018-03-17T10:50:41.594Z,444.38
2018-03-17T10:51:41.545Z,421.88
2018-03-17T10:52:41.486Z,410.63
2018-03-17T10:53:41.432Z,399.38
2018-03-17T10:54:41.377Z,399.38
2018-03-17T10:55:41.324Z,416.25
2018-03-17T10:56:41.269Z,416.25
2018-03-17T10:57:41.215Z,427.50
2018-03-17T10:58:41.160Z,427.50
2018-03-17T10:59:41.106Z,416.25
2018-03-17T11:00:41.053Z,405.00
2018-03-17T11:01:40.998Z,399.38
2018-03-17T11:02:40.943Z,410.63
2018-03-17T11:03:40.889Z,427.50
2018-03-17T11:04:40.835Z,450.00
2018-03-17T11:05:40.780Z,450.00
2018-03-17T11:06:40.725Z,438.75
2018-03-17T11:07:40.671Z,421.88
2018-03-17T11:08:40.617Z,376.88
2018-03-17T11:09:40.562Z,360.00
2018-03-17T11:10:40.508Z,343.13
2018-03-17T11:11:40.506Z,337.50
2018-03-17T11:12:40.399Z,337.50
2018-03-17T11:13:40.345Z,360.00
2018-03-17T11:14:40.292Z,315.00
2018-03-17T11:15:40.240Z,326.25
2018-03-17T11:16:40.181Z,331.88
2018-03-17T11:17:40.288Z,343.13
2018-03-17T11:18:40.072Z,360.00
2018-03-17T11:19:40.018Z,343.13
2018-03-17T11:20:39.963Z,354.38
2018-03-17T11:21:39.909Z,326.25
2018-03-17T11:22:39.854Z,365.63
2018-03-17T11:23:39.799Z,326.25
2018-03-17T11:24:39.745Z,354.38
2018-03-17T11:25:39.690Z,326.25
2018-03-17T11:26:39.635Z,331.88
2018-03-17T11:27:39.580Z,343.13
2018-03-17T11:28:39.525Z,360.00
2018-03-17T11:29:39.473Z,376.88
2018-03-17T11:30:39.415Z,388.13
2018-03-17T11:31:39.360Z,388.13
2018-03-17T11:32:39.311Z,382.50
2018-03-17T11:33:39.252Z,382.50
2018-03-17T11:34:39.199Z,388.13
2018-03-17T11:35:39.142Z,382.50
2018-03-17T11:36:39.088Z,382.50
2018-03-17T11:37:39.034Z,371.25
2018-03-17T11:38:39.016Z,365.63
2018-03-17T11:39:38.925Z,371.25
2018-03-17T11:40:38.903Z,388.13
2018-03-17T11:41:38.815Z,388.13
2018-03-17T11:42:38.759Z,376.88
2018-03-17T11:43:38.706Z,360.00
2018-03-17T11:44:38.651Z,360.00
2018-03-17T11:45:38.597Z,365.63
2018-03-17T11:46:38.541Z,388.13
2018-03-17T11:47:38.487Z,399.38
2018-03-17T11:48:38.432Z,416.25
2018-03-17T11:49:38.378Z,421.88
2018-03-17T11:50:38.322Z,421.88
2018-03-17T11:51:38.268Z,427.50
2018-03-17T11:52:38.214Z,438.75
2018-03-17T11:53:38.160Z,444.38
2018-03-17T11:54:38.131Z,427.50
2018-03-17T11:55:38.051Z,427.50
2018-03-17T11:56:37.996Z,433.13
2018-03-17T11:57:37.943Z,438.75
2018-03-17T11:58:37.887Z,433.13
2018-03-17T11:59:37.833Z,433.13
2018-03-17T12:00:37.778Z,433.13
2018-03-17T12:01:37.725Z,433.13
2018-03-17T12:02:37.671Z,433.13
2018-03-17T12:03:37.618Z,427.50
2018-03-17T12:04:37.561Z,444.38
2018-03-17T12:05:37.508Z,450.00
2018-03-17T12:06:37.452Z,444.38
2018-03-17T12:07:37.399Z,444.38
2018-03-17T12:08:37.345Z,416.25
2018-03-17T12:09:37.290Z,382.50
2018-03-17T12:10:37.237Z,371.25
2018-03-17T12:11:37.181Z,376.88
2018-03-17T12:12:37.127Z,405.00
2018-03-17T12:13:37.073Z,393.75
2018-03-17T12:14:37.018Z,382.50
2018-03-17T12:15:36.965Z,365.63
2018-03-17T12:16:36.910Z,365.63
2018-03-17T12:17:36.855Z,360.00
2018-03-17T12:18:36.800Z,360.00
2018-03-17T12:19:36.746Z,360.00
2018-03-17T12:20:36.691Z,371.25
2018-03-17T12:21:36.637Z,365.63
2018-03-17T12:22:36.582Z,371.25
2018-03-17T12:23:36.527Z,360.00
2018-03-17T12:24:36.473Z,348.75
2018-03-17T12:25:36.425Z,337.50
2018-03-17T12:26:36.363Z,331.88
2018-03-17T12:27:36.314Z,320.63
2018-03-17T12:28:36.254Z,320.63
2018-03-17T12:29:36.200Z,309.38
2018-03-17T12:30:36.144Z,315.00
2018-03-17T12:31:36.090Z,326.25
2018-03-17T12:32:36.035Z,337.50
2018-03-17T12:33:35.981Z,348.75
2018-03-17T12:34:35.924Z,343.13
2018-03-17T12:35:35.871Z,343.13
2018-03-17T12:36:35.816Z,343.13
2018-03-17T12:37:35.762Z,343.13
2018-03-17T12:38:35.710Z,337.50
2018-03-17T12:39:35.659Z,331.88
2018-03-17T12:40:35.599Z,326.25
2018-03-17T12:41:35.544Z,331.88
2018-03-17T12:42:35.491Z,326.25
2018-03-17T12:43:35.435Z,320.63
2018-03-17T12:44:35.380Z,320.63
2018-03-17T12:45:35.326Z,320.63